createdAt,value
2018-02-19T00:00:28.190Z,0.00
2018-02-19T00:01:04.735Z,0.00
2018-02-19T00:01:42.536Z,0.00
2018-02-19T00:02:17.975Z,0.00
2018-02-19T00:02:53.270Z,0.00
2018-02-19T00:03:28.679Z,0.00
2018-02-19T00:04:04.066Z,0.00
2018-02-19T00:04:39.980Z,0.00
2018-02-19T00:05:15.277Z,0.00
2018-02-19T00:05:51.707Z,0.00
2018-02-19T00:06:27.517Z,0.00
2018-02-19T00:07:03.027Z,0.00
2018-02-19T00:07:38.214Z,0.00
2018-02-19T00:08:13.638Z,0.00
2018-02-19T00:08:49.124Z,0.00
2018-02-19T00:09:24.560Z,0.00
2018-02-19T00:09:59.948Z,0.00
2018-02-19T00:10:35.379Z,0.00
2018-02-19T00:11:10.689Z,0.00
2018-02-19T00:11:45.707Z,0.00
2018-02-19T00:12:21.424Z,0.00
2018-02-19T00:12:57.442Z,0.00
2018-02-19T00:13:32.751Z,0.00
2018-02-19T00:14:08.193Z,0.00
2018-02-19T00:14:44.368Z,0.00
2018-02-19T00:15:19.726Z,0.00
2018-02-19T00:15:55.116Z,0.00
2018-02-19T00:16:30.257Z,0.00
2018-02-19T00:17:05.563Z,0.00
2018-02-19T00:17:40.881Z,0.00
2018-02-19T00:18:16.061Z,0.00
2018-02-19T00:18:51.689Z,0.00
2018-02-19T00:19:27.080Z,0.00
2018-02-19T00:20:02.583Z,0.00
2018-02-19T00:20:39.086Z,0.00
2018-02-19T00:21:14.576Z,0.00
2018-02-19T00:21:50.264Z,0.00
2018-02-19T00:22:25.491Z,0.00
2018-02-19T00:23:00.582Z,0.00
2018-02-19T00:23:35.815Z,0.00
2018-02-19T00:24:11.002Z,0.00
2018-02-19T00:24:46.342Z,0.00
2018-02-19T00:25:21.529Z,0.00
2018-02-19T00:25:57.252Z,0.00
2018-02-19T00:26:32.773Z,0.00
2018-02-19T00:27:08.107Z,0.00
2018-02-19T00:27:43.622Z,0.00
2018-02-19T00:28:19.240Z,0.00
2018-02-19T00:28:54.649Z,0.00
2018-02-19T00:29:30.000Z,0.00
2018-02-19T00:30:05.278Z,0.00
2018-02-19T00:30:41.105Z,0.00
2018-02-19T00:31:16.322Z,0.00
2018-02-19T00:31:51.851Z,0.00
2018-02-19T00:32:27.334Z,0.00
2018-02-19T00:33:02.752Z,0.00
2018-02-19T00:33:38.042Z,0.00
2018-02-19T00:34:13.460Z,0.00
2018-02-19T00:34:48.954Z,0.00
2018-02-19T00:35:24.491Z,0.00
2018-02-19T00:35:59.689Z,0.00
2018-02-19T00:36:35.265Z,0.00
2018-02-19T00:37:10.582Z,0.00
2018-02-19T00:37:45.908Z,0.00
2018-02-19T00:38:21.304Z,0.00
2018-02-19T00:38:56.322Z,0.00
2018-02-19T00:39:31.812Z,0.00
2018-02-19T00:40:07.141Z,0.00
2018-02-19T00:40:44.249Z,0.00
2018-02-19T00:41:19.667Z,0.00
2018-02-19T00:41:55.099Z,0.00
2018-02-19T00:42:30.314Z,0.00
2018-02-19T00:43:05.607Z,0.00
2018-02-19T00:43:41.323Z,0.00
2018-02-19T00:44:16.752Z,0.00
2018-02-19T00:44:52.076Z,0.00
2018-02-19T00:45:27.284Z,0.00
2018-02-19T00:46:04.621Z,0.00
2018-02-19T00:46:41.438Z,0.00
2018-02-19T00:47:16.806Z,0.00
2018-02-19T00:47:51.906Z,0.00
2018-02-19T00:48:27.159Z,0.00
2018-02-19T00:49:02.639Z,0.00
2018-02-19T00:49:37.758Z,0.00
2018-02-19T00:50:12.876Z,0.00
2018-02-19T00:50:48.924Z,0.00
2018-02-19T00:51:24.441Z,0.00
2018-02-19T00:52:00.178Z,0.00
2018-02-19T00:52:35.368Z,0.00
2018-02-19T00:53:10.990Z,0.00
2018-02-19T00:53:46.485Z,0.00
2018-02-19T00:54:21.826Z,0.00
2018-02-19T00:54:57.420Z,0.00
2018-02-19T00:55:33.049Z,0.00
2018-02-19T00:56:08.437Z,0.00
2018-02-19T00:56:44.387Z,0.00
2018-02-19T00:57:19.896Z,0.00
2018-02-19T00:57:55.318Z,0.00
2018-02-19T00:58:30.611Z,0.00
2018-02-19T00:59:05.841Z,0.00
2018-02-19T00:59:41.135Z,0.00
2018-02-19T01:00:16.674Z,0.00
2018-02-19T01:00:52.182Z,0.00
2018-02-19T01:01:27.406Z,0.00
2018-02-19T01:02:03.050Z,0.00
2018-02-19T01:02:38.265Z,0.00
2018-02-19T01:03:13.679Z,0.00
2018-02-19T01:03:49.109Z,0.00
2018-02-19T01:04:24.552Z,0.00
2018-02-19T01:05:00.069Z,0.00
2018-02-19T01:05:35.679Z,0.00
2018-02-19T01:06:11.123Z,0.00
2018-02-19T01:06:46.660Z,0.00
2018-02-19T01:07:22.188Z,0.00
2018-02-19T01:07:57.604Z,0.00
2018-02-19T01:08:33.035Z,0.00
2018-02-19T01:09:08.421Z,0.00
2018-02-19T01:09:44.345Z,0.00
2018-02-19T01:10:19.727Z,0.00
2018-02-19T01:10:55.247Z,0.00
2018-02-19T01:11:30.644Z,0.00
2018-02-19T01:12:05.875Z,0.00
2018-02-19T01:12:41.667Z,0.00
2018-02-19T01:13:16.877Z,0.00
2018-02-19T01:13:52.157Z,0.00
2018-02-19T01:14:27.502Z,0.00
2018-02-19T01:15:03.088Z,0.00
2018-02-19T01:15:40.088Z,0.00
2018-02-19T01:16:16.252Z,0.00
2018-02-19T01:16:51.614Z,0.00
2018-02-19T01:17:27.013Z,0.00
2018-02-19T01:18:02.342Z,0.00
2018-02-19T01:18:37.947Z,0.00
2018-02-19T01:19:13.613Z,0.00
2018-02-19T01:19:49.001Z,0.00
2018-02-19T01:20:24.218Z,0.00
2018-02-19T01:21:00.364Z,0.00
2018-02-19T01:21:35.655Z,0.00
2018-02-19T01:22:11.062Z,0.00
2018-02-19T01:22:47.456Z,0.00
2018-02-19T01:23:22.673Z,0.00
2018-02-19T01:23:58.183Z,0.00
2018-02-19T01:24:33.499Z,0.00
2018-02-19T01:25:08.814Z,0.00
2018-02-19T01:25:44.902Z,0.00
2018-02-19T01:26:20.303Z,0.00
2018-02-19T01:26:55.899Z,0.00
2018-02-19T01:27:31.310Z,0.00
2018-02-19T01:28:07.090Z,0.00
2018-02-19T01:28:42.607Z,0.00
2018-02-19T01:29:17.995Z,0.00
2018-02-19T01:29:53.335Z,0.00
2018-02-19T01:30:28.825Z,0.00
2018-02-19T01:31:03.939Z,0.00
2018-02-19T01:31:38.906Z,0.00
2018-02-19T01:32:14.339Z,0.00
2018-02-19T01:32:49.757Z,0.00
2018-02-19T01:33:25.078Z,0.00
2018-02-19T01:34:00.158Z,0.00
2018-02-19T01:34:35.756Z,0.00
2018-02-19T01:35:11.048Z,0.00
2018-02-19T01:35:46.861Z,0.00
2018-02-19T01:36:22.163Z,0.00
2018-02-19T01:36:58.105Z,0.00
2018-02-19T01:37:33.524Z,0.00
2018-02-19T01:38:08.920Z,0.00
2018-02-19T01:38:44.337Z,0.00
2018-02-19T01:39:19.757Z,0.00
2018-02-19T01:39:54.951Z,0.00
2018-02-19T01:40:30.152Z,0.00
2018-02-19T01:41:05.324Z,0.00
2018-02-19T01:41:40.756Z,0.00
2018-02-19T01:42:16.073Z,0.00
2018-02-19T01:42:51.800Z,0.00
2018-02-19T01:43:27.181Z,0.00
2018-02-19T01:44:02.687Z,0.00
2018-02-19T01:44:38.274Z,0.00
2018-02-19T01:45:13.685Z,0.00
2018-02-19T01:45:52.879Z,0.00
2018-02-19T01:46:28.377Z,0.00
2018-02-19T01:47:03.685Z,0.00
2018-02-19T01:47:39.041Z,0.00
2018-02-19T01:48:14.432Z,0.00
2018-02-19T01:48:49.651Z,0.00
2018-02-19T01:49:24.931Z,0.00
2018-02-19T01:50:00.637Z,0.00
2018-02-19T01:50:36.714Z,0.00
2018-02-19T01:51:12.210Z,0.00
2018-02-19T01:51:47.624Z,0.00
2018-02-19T01:52:22.949Z,0.00
2018-02-19T01:52:58.125Z,0.00
2018-02-19T01:53:33.643Z,0.00
2018-02-19T01:54:09.035Z,0.00
2018-02-19T01:54:44.889Z,0.00
2018-02-19T01:55:20.072Z,0.00
2018-02-19T01:55:55.485Z,0.00
2018-02-19T01:56:30.678Z,0.00
2018-02-19T01:57:05.880Z,0.00
2018-02-19T01:57:41.309Z,0.00
2018-02-19T01:58:16.536Z,0.00
2018-02-19T01:58:51.929Z,0.00
2018-02-19T01:59:27.342Z,0.00
2018-02-19T02:00:02.669Z,0.00
2018-02-19T02:00:39.080Z,0.00
2018-02-19T02:01:14.358Z,0.00
2018-02-19T02:01:49.789Z,0.00
2018-02-19T02:02:25.280Z,0.00
2018-02-19T02:03:00.806Z,0.00
2018-02-19T02:03:36.280Z,0.00
2018-02-19T02:04:11.580Z,0.00
2018-02-19T02:04:46.791Z,0.00
2018-02-19T02:05:22.085Z,0.00
2018-02-19T02:05:57.398Z,0.00
2018-02-19T02:06:32.904Z,0.00
2018-02-19T02:07:07.780Z,0.00
2018-02-19T02:07:43.935Z,0.00
2018-02-19T02:08:19.534Z,0.00
2018-02-19T02:08:55.057Z,0.00
2018-02-19T02:09:30.379Z,0.00
2018-02-19T02:10:05.730Z,0.00
2018-02-19T02:10:43.037Z,0.00
2018-02-19T02:11:18.658Z,0.00
2018-02-19T02:11:53.850Z,0.00
2018-02-19T02:12:29.106Z,0.00
2018-02-19T02:13:04.625Z,0.00
2018-02-19T02:13:39.977Z,0.00
2018-02-19T02:14:15.398Z,0.00
2018-02-19T02:14:50.449Z,0.00
2018-02-19T02:15:25.643Z,0.00
2018-02-19T02:16:03.170Z,0.00
2018-02-19T02:16:42.089Z,0.00
2018-02-19T02:17:17.720Z,0.00
2018-02-19T02:17:53.145Z,0.00
2018-02-19T02:18:28.482Z,0.00
2018-02-19T02:19:04.280Z,0.00
2018-02-19T02:19:39.652Z,0.00
2018-02-19T02:20:14.749Z,0.00
2018-02-19T02:20:50.210Z,0.00
2018-02-19T02:21:25.430Z,0.00
2018-02-19T02:22:00.973Z,0.00
2018-02-19T02:22:36.201Z,0.00
2018-02-19T02:23:11.649Z,0.00
2018-02-19T02:23:46.968Z,0.00
2018-02-19T02:24:22.327Z,0.00
2018-02-19T02:24:57.630Z,0.00
2018-02-19T02:25:32.992Z,0.00
2018-02-19T02:26:08.385Z,0.00
2018-02-19T02:26:44.612Z,0.00
2018-02-19T02:27:19.830Z,0.00
2018-02-19T02:27:55.097Z,0.00
2018-02-19T02:28:30.302Z,0.00
2018-02-19T02:29:05.671Z,0.00
2018-02-19T02:29:40.980Z,0.00
2018-02-19T02:30:16.156Z,0.00
2018-02-19T02:30:53.460Z,0.00
2018-02-19T02:31:28.786Z,0.00
2018-02-19T02:32:04.314Z,0.00
2018-02-19T02:32:39.543Z,0.00
2018-02-19T02:33:14.824Z,0.00
2018-02-19T02:33:50.362Z,0.00
2018-02-19T02:34:25.871Z,0.00
2018-02-19T02:35:01.368Z,0.00
2018-02-19T02:35:37.290Z,0.00
2018-02-19T02:36:12.943Z,0.00
2018-02-19T02:36:48.442Z,0.00
2018-02-19T02:37:23.671Z,0.00
2018-02-19T02:38:00.814Z,0.00
2018-02-19T02:38:36.073Z,0.00
2018-02-19T02:39:11.602Z,0.00
2018-02-19T02:39:46.632Z,0.00
2018-02-19T02:40:21.880Z,0.00
2018-02-19T02:40:57.143Z,0.00
2018-02-19T02:41:32.448Z,0.00
2018-02-19T02:42:07.706Z,0.00
2018-02-19T02:42:43.114Z,0.00
2018-02-19T02:43:18.524Z,0.00
2018-02-19T02:43:53.936Z,0.00
2018-02-19T02:44:29.280Z,0.00
2018-02-19T02:45:05.989Z,0.00
2018-02-19T02:45:41.930Z,0.00
2018-02-19T02:46:17.160Z,0.00
2018-02-19T02:46:52.593Z,0.00
2018-02-19T02:47:27.716Z,0.00
2018-02-19T02:48:03.091Z,0.00
2018-02-19T02:48:38.608Z,0.00
2018-02-19T02:49:14.249Z,0.00
2018-02-19T02:49:49.375Z,0.00
2018-02-19T02:50:24.596Z,0.00
2018-02-19T02:50:59.912Z,0.00
2018-02-19T02:51:35.149Z,0.00
2018-02-19T02:52:10.857Z,0.00
2018-02-19T02:52:47.285Z,0.00
2018-02-19T02:53:22.615Z,0.00
2018-02-19T02:53:57.857Z,0.00
2018-02-19T02:54:33.278Z,0.00
2018-02-19T02:55:08.601Z,0.00
2018-02-19T02:55:44.816Z,0.00
2018-02-19T02:56:20.059Z,0.00
2018-02-19T02:56:55.557Z,0.00
2018-02-19T02:57:30.760Z,0.00
2018-02-19T02:58:05.914Z,0.00
2018-02-19T02:58:41.449Z,0.00
2018-02-19T02:59:16.750Z,0.00
2018-02-19T02:59:52.309Z,0.00
2018-02-19T03:00:27.612Z,0.00
2018-02-19T03:01:03.343Z,0.00
2018-02-19T03:01:38.741Z,0.00
2018-02-19T03:02:13.981Z,0.00
2018-02-19T03:02:49.667Z,0.00
2018-02-19T03:03:25.026Z,0.00
2018-02-19T03:04:00.433Z,0.00
2018-02-19T03:04:36.061Z,0.00
2018-02-19T03:05:11.465Z,0.00
2018-02-19T03:05:46.871Z,0.00
2018-02-19T03:06:22.158Z,0.00
2018-02-19T03:06:57.502Z,0.00
2018-02-19T03:07:32.807Z,0.00
2018-02-19T03:08:08.158Z,0.00
2018-02-19T03:08:43.633Z,0.00
2018-02-19T03:09:18.969Z,0.00
2018-02-19T03:09:54.357Z,0.00
2018-02-19T03:10:29.686Z,0.00
2018-02-19T03:11:05.180Z,0.00
2018-02-19T03:11:40.639Z,0.00
2018-02-19T03:12:15.845Z,0.00
2018-02-19T03:12:51.182Z,0.00
2018-02-19T03:13:26.334Z,0.00
2018-02-19T03:14:01.976Z,0.00
2018-02-19T03:14:37.562Z,0.00
2018-02-19T03:15:13.197Z,0.00
2018-02-19T03:15:49.338Z,0.00
2018-02-19T03:16:24.584Z,0.00
2018-02-19T03:16:59.781Z,0.00
2018-02-19T03:17:35.210Z,0.00
2018-02-19T03:18:10.795Z,0.00
2018-02-19T03:18:46.333Z,0.00
2018-02-19T03:19:21.832Z,0.00
2018-02-19T03:19:57.043Z,0.00
2018-02-19T03:20:32.464Z,0.00
2018-02-19T03:21:07.888Z,0.00
2018-02-19T03:21:43.305Z,0.00
2018-02-19T03:22:18.640Z,0.00
2018-02-19T03:22:53.630Z,0.00
2018-02-19T03:23:28.989Z,0.00
2018-02-19T03:24:04.587Z,0.00
2018-02-19T03:24:41.058Z,0.00
2018-02-19T03:25:16.289Z,0.00
2018-02-19T03:25:51.499Z,0.00
2018-02-19T03:26:26.795Z,0.00
2018-02-19T03:27:02.237Z,0.00
2018-02-19T03:27:37.726Z,0.00
2018-02-19T03:28:13.274Z,0.00
2018-02-19T03:28:48.599Z,0.00
2018-02-19T03:29:24.030Z,0.00
2018-02-19T03:29:59.227Z,0.00
2018-02-19T03:30:34.769Z,0.00
2018-02-19T03:31:10.273Z,0.00
2018-02-19T03:31:45.606Z,0.00
2018-02-19T03:32:20.702Z,0.00
2018-02-19T03:32:56.061Z,0.00
2018-02-19T03:33:31.374Z,0.00
2018-02-19T03:34:07.111Z,0.00
2018-02-19T03:34:42.704Z,0.00
2018-02-19T03:35:18.132Z,0.00
2018-02-19T03:35:53.829Z,0.00
2018-02-19T03:36:29.068Z,0.00
2018-02-19T03:37:04.159Z,0.00
2018-02-19T03:37:39.591Z,0.00
2018-02-19T03:38:14.880Z,0.00
2018-02-19T03:38:50.022Z,0.00
2018-02-19T03:39:25.329Z,0.00
2018-02-19T03:40:00.734Z,0.00
2018-02-19T03:40:36.653Z,0.00
2018-02-19T03:41:11.993Z,0.00
2018-02-19T03:41:47.171Z,0.00
2018-02-19T03:42:22.501Z,0.00
2018-02-19T03:42:58.203Z,0.00
2018-02-19T03:43:33.553Z,0.00
2018-02-19T03:44:09.081Z,0.00
2018-02-19T03:44:44.523Z,0.00
2018-02-19T03:45:19.829Z,0.00
2018-02-19T03:45:55.382Z,0.00
2018-02-19T03:46:30.993Z,0.00
2018-02-19T03:47:06.717Z,0.00
2018-02-19T03:47:42.520Z,0.00
2018-02-19T03:48:18.249Z,0.00
2018-02-19T03:48:53.784Z,0.00
2018-02-19T03:49:29.274Z,0.00
2018-02-19T03:50:04.881Z,0.00
2018-02-19T03:50:43.109Z,0.00
2018-02-19T03:51:18.495Z,0.00
2018-02-19T03:51:53.527Z,0.00
2018-02-19T03:52:28.918Z,0.00
2018-02-19T03:53:04.159Z,0.00
2018-02-19T03:53:39.786Z,0.00
2018-02-19T03:54:15.153Z,0.00
2018-02-19T03:54:50.648Z,0.00
2018-02-19T03:55:26.157Z,0.00
2018-02-19T03:56:01.585Z,0.00
2018-02-19T03:56:37.107Z,0.00
2018-02-19T03:57:12.498Z,0.00
2018-02-19T03:57:47.851Z,0.00
2018-02-19T03:58:23.147Z,0.00
2018-02-19T03:58:58.818Z,0.00
2018-02-19T03:59:34.325Z,0.00
2018-02-19T04:00:09.528Z,0.00
2018-02-19T04:00:47.353Z,0.00
2018-02-19T04:01:22.577Z,0.00
2018-02-19T04:01:57.780Z,0.00
2018-02-19T04:02:32.898Z,0.00
2018-02-19T04:03:08.495Z,0.00
2018-02-19T04:03:44.938Z,0.00
2018-02-19T04:04:20.433Z,0.00
2018-02-19T04:04:56.061Z,0.00
2018-02-19T04:05:31.256Z,0.00
2018-02-19T04:06:06.572Z,0.00
2018-02-19T04:06:42.760Z,0.00
2018-02-19T04:07:18.190Z,0.00
2018-02-19T04:07:53.510Z,0.00
2018-02-19T04:08:28.843Z,0.00
2018-02-19T04:09:04.189Z,0.00
2018-02-19T04:09:40.049Z,0.00
2018-02-19T04:10:15.362Z,0.00
2018-02-19T04:10:52.396Z,0.00
2018-02-19T04:11:27.511Z,0.00
2018-02-19T04:12:03.173Z,0.00
2018-02-19T04:12:39.402Z,0.00
2018-02-19T04:13:14.966Z,0.00
2018-02-19T04:13:50.267Z,0.00
2018-02-19T04:14:25.340Z,0.00
2018-02-19T04:15:00.770Z,0.00
2018-02-19T04:15:36.831Z,0.00
2018-02-19T04:16:12.153Z,0.00
2018-02-19T04:16:47.593Z,0.00
2018-02-19T04:17:22.834Z,0.00
2018-02-19T04:17:58.073Z,0.00
2018-02-19T04:18:33.305Z,0.00
2018-02-19T04:19:08.779Z,0.00
2018-02-19T04:19:44.208Z,0.00
2018-02-19T04:20:19.948Z,0.00
2018-02-19T04:20:55.367Z,0.00
2018-02-19T04:21:31.008Z,0.00
2018-02-19T04:22:06.208Z,0.00
2018-02-19T04:22:41.259Z,0.00
2018-02-19T04:23:19.274Z,0.00
2018-02-19T04:23:54.855Z,0.00
2018-02-19T04:24:30.421Z,0.00
2018-02-19T04:25:06.181Z,0.00
2018-02-19T04:25:42.197Z,0.00
2018-02-19T04:26:17.534Z,0.00
2018-02-19T04:26:52.843Z,0.00
2018-02-19T04:27:28.168Z,0.00
2018-02-19T04:28:03.366Z,0.00
2018-02-19T04:28:38.703Z,0.00
2018-02-19T04:29:14.137Z,0.00
2018-02-19T04:29:49.560Z,0.00
2018-02-19T04:30:24.652Z,0.00
2018-02-19T04:31:00.892Z,0.00
2018-02-19T04:31:36.489Z,0.00
2018-02-19T04:32:11.947Z,0.00
2018-02-19T04:32:47.457Z,0.00
2018-02-19T04:33:22.790Z,0.00
2018-02-19T04:33:58.417Z,0.00
2018-02-19T04:34:33.639Z,0.00
2018-02-19T04:35:08.944Z,0.00
2018-02-19T04:35:44.574Z,0.00
2018-02-19T04:36:19.921Z,0.00
2018-02-19T04:36:55.142Z,0.00
2018-02-19T04:37:30.754Z,0.00
2018-02-19T04:38:06.094Z,0.00
2018-02-19T04:38:41.451Z,0.00
2018-02-19T04:39:16.908Z,0.00
2018-02-19T04:39:52.489Z,0.00
2018-02-19T04:40:27.726Z,0.00
2018-02-19T04:41:03.724Z,0.00
2018-02-19T04:41:39.158Z,0.00
2018-02-19T04:42:14.631Z,0.00
2018-02-19T04:42:49.965Z,0.00
2018-02-19T04:43:25.585Z,0.00
2018-02-19T04:44:01.004Z,0.00
2018-02-19T04:44:36.344Z,0.00
2018-02-19T04:45:12.663Z,0.00
2018-02-19T04:45:48.056Z,0.00
2018-02-19T04:46:23.492Z,0.00
2018-02-19T04:46:58.789Z,0.00
2018-02-19T04:47:34.325Z,0.00
2018-02-19T04:48:09.513Z,0.00
2018-02-19T04:48:45.660Z,0.00
2018-02-19T04:49:21.226Z,0.00
2018-02-19T04:49:56.652Z,0.00
2018-02-19T04:50:32.163Z,0.00
2018-02-19T04:51:07.692Z,0.00
2018-02-19T04:51:43.110Z,0.00
2018-02-19T04:52:18.736Z,0.00
2018-02-19T04:52:54.140Z,0.00
2018-02-19T04:53:29.493Z,0.00
2018-02-19T04:54:04.913Z,0.00
2018-02-19T04:54:40.272Z,0.00
2018-02-19T04:55:15.892Z,0.00
2018-02-19T04:55:51.235Z,0.00
2018-02-19T04:56:26.742Z,0.00
2018-02-19T04:57:02.073Z,0.00
2018-02-19T04:57:37.370Z,0.00
2018-02-19T04:58:12.833Z,0.00
2018-02-19T04:58:48.340Z,0.00
2018-02-19T04:59:23.706Z,0.00
2018-02-19T04:59:59.146Z,0.00
2018-02-19T05:00:34.776Z,0.00
2018-02-19T05:01:11.507Z,0.00
2018-02-19T05:01:47.260Z,0.00
2018-02-19T05:02:22.459Z,0.00
2018-02-19T05:02:57.795Z,0.00
2018-02-19T05:03:33.200Z,0.00
2018-02-19T05:04:08.618Z,0.00
2018-02-19T05:04:43.935Z,0.00
2018-02-19T05:05:19.459Z,0.00
2018-02-19T05:05:55.445Z,0.00
2018-02-19T05:06:31.217Z,0.00
2018-02-19T05:07:06.399Z,0.00
2018-02-19T05:07:41.713Z,0.00
2018-02-19T05:08:17.196Z,0.00
2018-02-19T05:08:53.711Z,0.00
2018-02-19T05:09:28.916Z,0.00
2018-02-19T05:10:04.266Z,0.00
2018-02-19T05:10:41.362Z,0.00
2018-02-19T05:11:16.782Z,0.00
2018-02-19T05:11:51.970Z,0.00
2018-02-19T05:12:27.197Z,0.00
2018-02-19T05:13:02.602Z,0.00
2018-02-19T05:13:37.937Z,0.00
2018-02-19T05:14:13.832Z,0.00
2018-02-19T05:14:50.585Z,0.00
2018-02-19T05:15:26.068Z,0.00
2018-02-19T05:16:01.300Z,0.00
2018-02-19T05:16:36.601Z,0.00
2018-02-19T05:17:12.050Z,0.00
2018-02-19T05:17:47.640Z,0.00
2018-02-19T05:18:23.271Z,0.00
2018-02-19T05:18:58.982Z,0.00
2018-02-19T05:19:34.414Z,0.00
2018-02-19T05:20:09.621Z,0.00
2018-02-19T05:20:46.836Z,0.00
2018-02-19T05:21:22.249Z,0.00
2018-02-19T05:21:57.171Z,0.00
2018-02-19T05:22:32.299Z,0.00
2018-02-19T05:23:07.429Z,0.00
2018-02-19T05:23:42.820Z,0.00
2018-02-19T05:24:18.344Z,0.00
2018-02-19T05:24:53.662Z,0.00
2018-02-19T05:25:29.077Z,0.00
2018-02-19T05:26:04.171Z,0.00
2018-02-19T05:26:39.303Z,0.00
2018-02-19T05:27:14.600Z,0.00
2018-02-19T05:27:49.916Z,0.00
2018-02-19T05:28:25.204Z,0.00
2018-02-19T05:29:00.451Z,0.00
2018-02-19T05:29:36.141Z,0.00
2018-02-19T05:30:11.680Z,0.00
2018-02-19T05:30:48.487Z,0.00
2018-02-19T05:31:24.168Z,0.00
2018-02-19T05:31:59.662Z,0.00
2018-02-19T05:32:35.085Z,0.00
2018-02-19T05:33:10.465Z,0.00
2018-02-19T05:33:45.785Z,0.00
2018-02-19T05:34:21.096Z,0.00
2018-02-19T05:34:56.530Z,0.00
2018-02-19T05:35:31.870Z,0.00
2018-02-19T05:36:07.427Z,0.00
2018-02-19T05:36:42.748Z,0.00
2018-02-19T05:37:17.783Z,0.00
2018-02-19T05:37:53.298Z,0.00
2018-02-19T05:38:28.625Z,0.00
2018-02-19T05:39:04.153Z,0.00
2018-02-19T05:39:39.483Z,0.00
2018-02-19T05:40:14.704Z,4.00
2018-02-19T05:40:50.344Z,4.00
2018-02-19T05:41:25.442Z,4.00
2018-02-19T05:42:00.788Z,4.00
2018-02-19T05:42:36.187Z,4.00
2018-02-19T05:43:11.933Z,4.00
2018-02-19T05:43:47.577Z,4.00
2018-02-19T05:44:23.014Z,0.00
2018-02-19T05:44:58.444Z,0.00
2018-02-19T05:45:33.909Z,0.00
2018-02-19T05:46:09.220Z,0.00
2018-02-19T05:46:45.137Z,0.00
2018-02-19T05:47:20.245Z,4.00
2018-02-19T05:47:55.799Z,0.00
2018-02-19T05:48:31.115Z,0.00
2018-02-19T05:49:06.243Z,0.00
2018-02-19T05:49:41.736Z,0.00
2018-02-19T05:50:17.405Z,0.00
2018-02-19T05:50:52.840Z,4.00
2018-02-19T05:51:28.263Z,0.00
2018-02-19T05:52:03.387Z,0.00
2018-02-19T05:52:39.202Z,0.00
2018-02-19T05:53:14.584Z,4.00
2018-02-19T05:53:50.044Z,4.00
2018-02-19T05:54:25.352Z,4.00
2018-02-19T05:55:00.584Z,4.00
2018-02-19T05:55:36.198Z,4.00
2018-02-19T05:56:11.511Z,4.00
2018-02-19T05:56:46.701Z,4.00
2018-02-19T05:57:21.940Z,4.00
2018-02-19T05:57:57.143Z,4.00
2018-02-19T05:58:32.464Z,4.00
2018-02-19T05:59:08.161Z,4.00
2018-02-19T05:59:43.613Z,4.00
2018-02-19T06:00:18.829Z,4.00
2018-02-19T06:00:55.302Z,4.00
2018-02-19T06:01:30.601Z,4.00
2018-02-19T06:02:06.013Z,4.00
2018-02-19T06:02:41.404Z,4.00
2018-02-19T06:03:16.626Z,4.00
2018-02-19T06:03:51.935Z,4.00
2018-02-19T06:04:27.659Z,4.00
2018-02-19T06:05:03.052Z,4.00
2018-02-19T06:05:38.400Z,4.00
2018-02-19T06:06:13.812Z,4.00
2018-02-19T06:06:49.150Z,4.00
2018-02-19T06:07:24.450Z,4.00
2018-02-19T06:07:59.870Z,4.00
2018-02-19T06:08:38.470Z,4.00
2018-02-19T06:09:13.696Z,4.00
2018-02-19T06:09:48.696Z,4.00
2018-02-19T06:10:24.051Z,4.00
2018-02-19T06:11:00.559Z,4.00
2018-02-19T06:11:35.910Z,8.00
2018-02-19T06:12:11.209Z,4.00
2018-02-19T06:12:47.048Z,4.00
2018-02-19T06:13:22.550Z,8.00
2018-02-19T06:13:57.769Z,8.00
2018-02-19T06:14:33.186Z,4.00
2018-02-19T06:15:12.420Z,8.00
2018-02-19T06:15:47.548Z,8.00
2018-02-19T06:16:23.091Z,8.00
2018-02-19T06:16:58.377Z,8.00
2018-02-19T06:17:33.804Z,8.00
2018-02-19T06:18:09.609Z,12.00
2018-02-19T06:18:45.937Z,8.00
2018-02-19T06:19:21.178Z,12.00
2018-02-19T06:19:56.482Z,12.00
2018-02-19T06:20:31.801Z,16.00
2018-02-19T06:21:07.249Z,12.00
2018-02-19T06:21:42.842Z,16.00
2018-02-19T06:22:18.364Z,16.00
2018-02-19T06:22:53.559Z,16.00
2018-02-19T06:23:29.275Z,24.00
2018-02-19T06:24:04.609Z,24.00
2018-02-19T06:24:41.043Z,28.00
2018-02-19T06:25:16.256Z,28.00
2018-02-19T06:25:53.721Z,32.00
2018-02-19T06:26:29.245Z,36.00
2018-02-19T06:27:04.783Z,36.00
2018-02-19T06:27:39.975Z,40.00
2018-02-19T06:28:15.106Z,44.00
2018-02-19T06:28:50.304Z,48.00
2018-02-19T06:29:25.797Z,52.00
2018-02-19T06:30:01.223Z,56.00
2018-02-19T06:30:37.749Z,60.00
2018-02-19T06:31:13.483Z,64.00
2018-02-19T06:31:48.846Z,68.00
2018-02-19T06:32:24.321Z,72.00
2018-02-19T06:32:59.775Z,76.00
2018-02-19T06:33:35.578Z,84.00
2018-02-19T06:34:11.249Z,88.00
2018-02-19T06:34:47.535Z,96.00
2018-02-19T06:35:22.901Z,104.00
2018-02-19T06:35:59.133Z,112.00
2018-02-19T06:36:34.880Z,120.00
2018-02-19T06:37:10.218Z,128.00
2018-02-19T06:37:45.882Z,136.00
2018-02-19T06:38:21.172Z,144.00
2018-02-19T06:38:56.721Z,152.00
2018-02-19T06:39:32.028Z,160.00
2018-02-19T06:40:07.432Z,172.00
2018-02-19T06:40:43.176Z,180.00
2018-02-19T06:41:18.729Z,196.00
2018-02-19T06:41:54.359Z,208.00
2018-02-19T06:42:29.605Z,224.00
2018-02-19T06:43:05.352Z,240.00
2018-02-19T06:43:40.801Z,252.00
2018-02-19T06:44:16.748Z,264.00
2018-02-19T06:44:52.421Z,276.00
2018-02-19T06:45:27.663Z,292.00
2018-02-19T06:46:03.051Z,300.00
2018-02-19T06:46:38.788Z,312.00
2018-02-19T06:47:14.144Z,324.00
2018-02-19T06:47:49.603Z,336.00
2018-02-19T06:48:25.197Z,352.00
2018-02-19T06:49:04.659Z,372.00
2018-02-19T06:49:42.732Z,392.00
2018-02-19T06:50:18.001Z,408.00
2018-02-19T06:50:55.159Z,428.00
2018-02-19T06:51:30.497Z,440.00
2018-02-19T06:52:09.254Z,448.00
2018-02-19T06:52:45.816Z,464.00
2018-02-19T06:53:21.558Z,476.00
2018-02-19T06:54:01.596Z,492.00
2018-02-19T06:54:38.239Z,508.00
2018-02-19T06:55:14.908Z,532.00
2018-02-19T06:55:55.584Z,556.00
2018-02-19T06:56:30.815Z,580.00
2018-02-19T06:57:06.375Z,596.00
2018-02-19T06:57:42.007Z,616.00
2018-02-19T06:58:17.458Z,640.00
2018-02-19T06:58:52.889Z,664.00
2018-02-19T06:59:28.428Z,692.00
2018-02-19T07:00:03.892Z,716.00
2018-02-19T07:00:42.656Z,744.00
2018-02-19T07:01:18.217Z,776.00
2018-02-19T07:01:53.557Z,800.00
2018-02-19T07:02:28.686Z,832.00
2018-02-19T07:03:04.111Z,860.00
2018-02-19T07:03:39.551Z,884.00
2018-02-19T07:04:14.894Z,900.00
2018-02-19T07:04:53.392Z,912.00
2018-02-19T07:05:29.038Z,924.00
2018-02-19T07:06:04.366Z,932.00
2018-02-19T07:06:42.892Z,940.00
2018-02-19T07:07:18.203Z,944.00
2018-02-19T07:07:53.523Z,948.00
2018-02-19T07:08:29.054Z,948.00
2018-02-19T07:09:05.074Z,956.00
2018-02-19T07:09:40.623Z,952.00
2018-02-19T07:10:16.032Z,956.00
2018-02-19T07:10:51.337Z,960.00
2018-02-19T07:11:26.905Z,964.00
2018-02-19T07:12:02.664Z,968.00
2018-02-19T07:12:38.072Z,972.00
2018-02-19T07:13:13.297Z,968.00
2018-02-19T07:13:48.686Z,968.00
2018-02-19T07:14:23.878Z,976.00
2018-02-19T07:14:59.272Z,976.00
2018-02-19T07:15:34.510Z,988.00
2018-02-19T07:16:10.383Z,1008.00
2018-02-19T07:16:45.582Z,1032.00
2018-02-19T07:17:20.862Z,1068.00
2018-02-19T07:17:56.244Z,1112.00
2018-02-19T07:18:31.690Z,1156.00
2018-02-19T07:19:07.239Z,1192.00
2018-02-19T07:19:43.229Z,1220.00
2018-02-19T07:20:18.656Z,1244.00
2018-02-19T07:20:55.551Z,1264.00
2018-02-19T07:21:30.914Z,1280.00
2018-02-19T07:22:06.349Z,1296.00
2018-02-19T07:22:41.764Z,1308.00
2018-02-19T07:23:17.111Z,1312.00
2018-02-19T07:23:52.714Z,1304.00
2018-02-19T07:24:28.470Z,1300.00
2018-02-19T07:25:03.933Z,1284.00
2018-02-19T07:25:39.138Z,1268.00
2018-02-19T07:26:14.423Z,1260.00
2018-02-19T07:26:49.745Z,1260.00
2018-02-19T07:27:25.379Z,1268.00
2018-02-19T07:28:00.702Z,1288.00
2018-02-19T07:28:36.236Z,1332.00
2018-02-19T07:29:11.648Z,1380.00
2018-02-19T07:29:46.962Z,1436.00
2018-02-19T07:30:22.340Z,1496.00
2018-02-19T07:30:58.260Z,1556.00
2018-02-19T07:31:33.603Z,1608.00
2018-02-19T07:32:08.916Z,1652.00
2018-02-19T07:32:44.625Z,1684.00
2018-02-19T07:33:19.980Z,1720.00
2018-02-19T07:33:55.385Z,1756.00
2018-02-19T07:34:30.714Z,1796.00
2018-02-19T07:35:06.265Z,1844.00
2018-02-19T07:35:43.081Z,1896.00
2018-02-19T07:36:18.734Z,1948.00
2018-02-19T07:36:54.035Z,2004.00
2018-02-19T07:37:29.582Z,2056.00
2018-02-19T07:38:05.115Z,2120.00
2018-02-19T07:38:40.722Z,2172.00
2018-02-19T07:39:16.368Z,2216.00
2018-02-19T07:39:51.782Z,2268.00
2018-02-19T07:40:27.109Z,2324.00
2018-02-19T07:41:03.126Z,2404.00
2018-02-19T07:41:38.567Z,2484.00
2018-02-19T07:42:13.995Z,2560.00
2018-02-19T07:42:51.710Z,2644.00
2018-02-19T07:43:27.066Z,2740.00
2018-02-19T07:44:02.394Z,2832.00
2018-02-19T07:44:37.716Z,2904.00
2018-02-19T07:45:12.944Z,2968.00
2018-02-19T07:45:49.286Z,3040.00
2018-02-19T07:46:24.676Z,3084.00
2018-02-19T07:47:01.280Z,3124.00